Time;durP1;ratioP1;P1;durP2;ratioP2;P2;SDS_P1;SDS_P2;PMS_P1;PMS_P2;Temp;Humidity;BMP_temperature;BMP_pressure;BME280_temperature;BME280_humidity;BME280_pressure;Samples;Min_cycle;Max_cycle;Signal;HPM_P1;HPM_P2
2021/01/10 00:01:12;;;;;;;62.8;40.6;;;;;;;-0.46;78.80859;99263.45;;;;
2021/01/10 00:11:10;;;;;;;55.3;41.4;;;;;;;-0.4;79.11426;99267.04;;;;
2021/01/10 00:21:08;;;;;;;64;48.2;;;;;;;-0.37;79.13086;99271.89;;;;
2021/01/10 00:31:06;;;;;;;55.2;44.6;;;;;;;-0.39;78.94043;99273.97;;;;
2021/01/10 00:41:03;;;;;;;57.8;44.9;;;;;;;-0.43;79.1084;99293.97;;;;
2021/01/10 00:51:01;;;;;;;71.4;51.1;;;;;;;-0.45;78.82031;99288.88;;;;
2021/01/10 01:00:59;;;;;;;58.7;43.1;;;;;;;-0.48;79.03418;99304.39;;;;
2021/01/10 01:10:56;;;;;;;73.1;52.3;;;;;;;-0.51;79.07422;99301.16;;;;
2021/01/10 01:20:54;;;;;;;68.9;50.1;;;;;;;-0.66;79.91211;99316.56;;;;
2021/01/10 01:30:52;;;;;;;55.3;43.2;;;;;;;-0.69;80.0498;99309.06;;;;
2021/01/10 01:40:49;;;;;;;59;44.2;;;;;;;-0.62;79.7334;99301.88;;;;
2021/01/10 01:50:48;;;;;;;61.1;46.5;;;;;;;-0.58;79.41113;99304.89;;;;
2021/01/10 02:00:45;;;;;;;74.4;55.3;;;;;;;-0.73;80.14063;99307.08;;;;
2021/01/10 02:10:42;;;;;;;55.6;46.9;;;;;;;-0.77;80.0459;99313.83;;;;
2021/01/10 02:20:40;;;;;;;57.9;41.6;;;;;;;-0.82;79.76172;99303.07;;;;
2021/01/10 02:30:38;;;;;;;57.4;45.5;;;;;;;-0.86;79.95215;99307.98;;;;
2021/01/10 02:40:36;;;;;;;52.4;41.2;;;;;;;-0.87;80.04785;99308.22;;;;
2021/01/10 02:50:34;;;;;;;60.8;42.2;;;;;;;-0.91;80.35938;99305.19;;;;
2021/01/10 03:00:32;;;;;;;54.4;38.2;;;;;;;-0.9;80.20898;99301.5;;;;
2021/01/10 03:20:26;;;;;;;59.9;45.5;;;;;;;-0.93;79.54395;99304.58;;;;
2021/01/10 03:30:24;;;;;;;51.9;40.6;;;;;;;-0.99;79.86133;99305.45;;;;
2021/01/10 03:40:21;;;;;;;43.3;33.4;;;;;;;-0.95;79.57129;99305.83;;;;
2021/01/10 03:50:19;;;;;;;46.7;35.2;;;;;;;-1.06;79.33203;99299.4;;;;
2021/01/10 04:00:16;;;;;;;43;31;;;;;;;-1.03;79.20703;99294.48;;;;
2021/01/10 04:10:14;;;;;;;40.8;30.8;;;;;;;-0.99;78.38867;99304.64;;;;
2021/01/10 04:20:12;;;;;;;43;32;;;;;;;-1.01;78.23535;99310.94;;;;
2021/01/10 04:30:09;;;;;;;42;30.8;;;;;;;-1.02;78.09863;99316.47;;;;
2021/01/10 04:40:07;;;;;;;39.4;30.6;;;;;;;-1.03;77.50586;99318.3;;;;
2021/01/10 04:50:04;;;;;;;36.1;23.5;;;;;;;-1.03;77.01172;99317.48;;;;
2021/01/10 05:00:02;;;;;;;29.5;22;;;;;;;-0.96;76.76172;99318.24;;;;
2021/01/10 05:09:59;;;;;;;35.3;22.8;;;;;;;-0.98;77.06348;99322.14;;;;
2021/01/10 05:19:57;;;;;;;26.1;19.3;;;;;;;-0.92;76.87793;99326.56;;;;
2021/01/10 05:29:54;;;;;;;25.9;20.7;;;;;;;-0.9;76.98145;99325.31;;;;
2021/01/10 05:39:52;;;;;;;36.4;22.4;;;;;;;-0.92;77.04199;99329.2;;;;
2021/01/10 05:49:50;;;;;;;31.7;23.4;;;;;;;-1.22;77.55957;99321.91;;;;
2021/01/10 05:59:47;;;;;;;28.9;22.3;;;;;;;-1.73;77.61816;99327.23;;;;
2021/01/10 06:09:45;;;;;;;37;23.1;;;;;;;-2.22;77.32227;99319.89;;;;
2021/01/10 06:19:42;;;;;;;26.9;19.9;;;;;;;-2.72;78.43262;99320.59;;;;
2021/01/10 06:29:39;;;;;;;36.7;19.1;;;;;;;-3.14;79.39355;99338.44;;;;
2021/01/10 06:39:38;;;;;;;25.9;19.2;;;;;;;-3.4;80.7959;99335.73;;;;
2021/01/10 06:49:34;;;;;;;18.3;15.2;;;;;;;-3.5;81.69238;99366.92;;;;
2021/01/10 06:59:31;;;;;;;31.6;17.6;;;;;;;-3.61;82.96875;99373.58;;;;
2021/01/10 07:09:49;;;;;;;25.3;16.6;;;;;;;-3.74;83.83496;99376.16;;;;
2021/01/10 07:19:25;;;;;;;22.9;18.2;;;;;;;-3.73;84.56445;99390.15;;;;
2021/01/10 07:29:23;;;;;;;25.6;16.9;;;;;;;-3.67;83.79297;99402.53;;;;
2021/01/10 07:39:20;;;;;;;25.8;17.2;;;;;;;-3.43;84.7998;99407.28;;;;
2021/01/10 07:49:17;;;;;;;23.4;16;;;;;;;-3.11;83.90625;99417.13;;;;
2021/01/10 07:59:17;;;;;;;31.1;20.1;;;;;;;-2.74;83.19336;99402.56;;;;
2021/01/10 08:09:12;;;;;;;19.8;15.2;;;;;;;-2.49;82.22461;99413.33;;;;
2021/01/10 08:19:09;;;;;;;28;22.2;;;;;;;-2.22;81.27051;99411.52;;;;
2021/01/10 08:29:07;;;;;;;35.3;19.5;;;;;;;-1.94;80.19824;99417.33;;;;
2021/01/10 08:39:04;;;;;;;29.3;20;;;;;;;-1.68;79.61133;99421.75;;;;
2021/01/10 08:49:01;;;;;;;32.3;21.4;;;;;;;-1.41;77.4248;99433.84;;;;
2021/01/10 08:58:59;;;;;;;31.2;20.1;;;;;;;-1.17;76.3623;99433.13;;;;
2021/01/10 09:08:56;;;;;;;33.4;27.6;;;;;;;-0.92;75.86719;99441.14;;;;
2021/01/10 09:18:54;;;;;;;24.2;21.1;;;;;;;-0.62;75.07324;99446.64;;;;
2021/01/10 09:28:52;;;;;;;28.3;23.6;;;;;;;-0.4;73.25391;99437.32;;;;
2021/01/10 09:38:49;;;;;;;42.9;30.1;;;;;;;-0.24;73.6875;99441.25;;;;
2021/01/10 09:48:47;;;;;;;43.8;28.4;;;;;;;-0.05;73.35742;99427.86;;;;
2021/01/10 09:58:45;;;;;;;45.5;28.5;;;;;;;0.14;72.11133;99431.33;;;;
2021/01/10 10:08:42;;;;;;;36.3;25.8;;;;;;;0.48;70.91992;99424.66;;;;
2021/01/10 10:18:40;;;;;;;37.8;27;;;;;;;0.77;69.97461;99420.41;;;;
2021/01/10 10:28:38;;;;;;;33;24.2;;;;;;;0.99;69.42578;99409.1;;;;
2021/01/10 10:38:36;;;;;;;28.3;23.7;;;;;;;1.24;67.77148;99389.55;;;;
2021/01/10 10:48:33;;;;;;;39.8;24.2;;;;;;;1.47;67.70898;99384.28;;;;
2021/01/10 10:58:31;;;;;;;28.1;23.4;;;;;;;1.62;66.93457;99378.53;;;;
2021/01/10 11:08:31;;;;;;;36.2;26;;;;;;;1.83;66.19238;99377.96;;;;
2021/01/10 11:18:27;;;;;;;27.3;21.4;;;;;;;1.96;63.58301;99365.24;;;;
2021/01/10 11:28:25;;;;;;;31;22.3;;;;;;;1.98;62.24121;99363.14;;;;
2021/01/10 11:38:23;;;;;;;30.3;25.5;;;;;;;2.34;62.79395;99364.72;;;;
2021/01/10 11:48:21;;;;;;;25.5;21.1;;;;;;;2.31;61.08789;99369.7;;;;
2021/01/10 11:58:19;;;;;;;12.9;11.1;;;;;;;2.42;55.54883;99368.87;;;;
2021/01/10 12:08:17;;;;;;;12.1;9.7;;;;;;;2.48;53.27246;99355.42;;;;
2021/01/10 12:18:14;;;;;;;6.6;4.4;;;;;;;2.91;49.08203;99359.44;;;;
2021/01/10 12:28:14;;;;;;;17.5;12.5;;;;;;;3.27;53.24805;99347.52;;;;
2021/01/10 12:38:10;;;;;;;16.3;11;;;;;;;3.6;50.68359;99352.88;;;;
2021/01/10 12:48:10;;;;;;;14;10.6;;;;;;;3.28;50.99219;99341.97;;;;
2021/01/10 12:58:07;;;;;;;12.2;7.6;;;;;;;3.21;47.89648;99335.18;;;;
2021/01/10 13:08:05;;;;;;;18.6;13.2;;;;;;;3.09;50.87988;99345.89;;;;
2021/01/10 13:18:03;;;;;;;15.9;12.7;;;;;;;2.95;53.43262;99342.72;;;;
2021/01/10 13:28:01;;;;;;;13.3;9.1;;;;;;;2.81;51.58301;99340.63;;;;
2021/01/10 13:37:59;;;;;;;11;9.2;;;;;;;2.33;51.0459;99336.49;;;;
2021/01/10 13:47:57;;;;;;;14.4;9;;;;;;;1.94;51.11133;99343.38;;;;
2021/01/10 13:57:55;;;;;;;16.2;10;;;;;;;1.48;52.71387;99352.19;;;;
2021/01/10 14:07:53;;;;;;;15.4;10.5;;;;;;;1.05;53.73828;99351.64;;;;
2021/01/10 14:17:50;;;;;;;18.1;12.7;;;;;;;0.65;55.62891;99355.89;;;;
2021/01/10 14:27:48;;;;;;;15.3;11.1;;;;;;;0.17;57.67188;99346.09;;;;
2021/01/10 14:37:46;;;;;;;15.2;12.3;;;;;;;-0.24;59.06543;99356.5;;;;
2021/01/10 14:47:44;;;;;;;25.1;18.4;;;;;;;-0.73;60.64355;99354.72;;;;
2021/01/10 14:57:41;;;;;;;39.8;27.2;;;;;;;-1.09;63.63672;99356.19;;;;
2021/01/10 15:07:39;;;;;;;34.9;23.2;;;;;;;-1.55;64.31543;99359.08;;;;
2021/01/10 15:17:36;;;;;;;25.7;19.2;;;;;;;-2.09;65.98242;99356.84;;;;
2021/01/10 15:27:34;;;;;;;31.4;25.1;;;;;;;-2.44;68.56055;99368.69;;;;
2021/01/10 15:37:32;;;;;;;42.8;25.4;;;;;;;-2.71;69.5918;99364.44;;;;
2021/01/10 15:47:31;;;;;;;27;17.7;;;;;;;-2.9;71.85938;99367.86;;;;
2021/01/10 15:57:26;;;;;;;32.3;21.4;;;;;;;-2.97;72.85352;99367.05;;;;
2021/01/10 16:07:23;;;;;;;51.2;34;;;;;;;-2.96;74.30078;99366.86;;;;
2021/01/10 16:17:20;;;;;;;36.7;24.6;;;;;;;-3;73.88867;99372.72;;;;
2021/01/10 16:27:19;;;;;;;40.2;23.4;;;;;;;-3.06;75.02539;99371.71;;;;
2021/01/10 16:37:15;;;;;;;40;30.1;;;;;;;-3.17;75.29102;99367.02;;;;
2021/01/10 16:47:12;;;;;;;74.4;44.2;;;;;;;-3.17;77.1377;99372.3;;;;
2021/01/10 16:57:09;;;;;;;47.1;32.7;;;;;;;-3.26;76.95703;99384.83;;;;
2021/01/10 17:07:07;;;;;;;46.8;28.9;;;;;;;-3.3;78.47949;99383.63;;;;
2021/01/10 17:17:04;;;;;;;45.8;29.9;;;;;;;-3.34;78.92969;99382.4;;;;
2021/01/10 17:27:01;;;;;;;53;29.8;;;;;;;-3.45;79.3457;99385.6;;;;
2021/01/10 17:36:58;;;;;;;56.8;42.7;;;;;;;-3.61;78.55273;99388.59;;;;
2021/01/10 17:46:55;;;;;;;53.1;36.3;;;;;;;-3.74;79.66113;99388.52;;;;
2021/01/10 18:06:50;;;;;;;34;27.4;;;;;;;-3.84;81.24609;99399.41;;;;
2021/01/10 18:16:47;;;;;;;36.9;27.3;;;;;;;-3.86;81.74219;99413.79;;;;
2021/01/10 18:26:44;;;;;;;44.2;29.8;;;;;;;-3.83;81.97559;99416.03;;;;
2021/01/10 18:36:41;;;;;;;40.7;29.3;;;;;;;-3.91;81.5791;99400.38;;;;
2021/01/10 18:46:39;;;;;;;47.3;33.6;;;;;;;-4.17;80.80176;99399.24;;;;
2021/01/10 18:56:36;;;;;;;52.4;35.8;;;;;;;-4.47;81.16797;99387.27;;;;
2021/01/10 19:06:33;;;;;;;70.9;39.9;;;;;;;-4.67;81.78027;99386.31;;;;
2021/01/10 19:16:32;;;;;;;49.2;31.5;;;;;;;-4.83;81.95605;99386.59;;;;
2021/01/10 19:26:27;;;;;;;80.9;46.8;;;;;;;-4.98;82.07813;99380.59;;;;
2021/01/10 19:36:25;;;;;;;94.6;57.8;;;;;;;-5.06;82.71582;99371.01;;;;
2021/01/10 19:46:22;;;;;;;49.5;33.8;;;;;;;-5.11;83.3457;99373.41;;;;
2021/01/10 19:56:19;;;;;;;110.2;67.9;;;;;;;-5.18;83.375;99380.41;;;;
2021/01/10 20:06:16;;;;;;;105.9;69.9;;;;;;;-5.22;83.58301;99379.16;;;;
2021/01/10 20:16:13;;;;;;;100.8;65.5;;;;;;;-5.26;83.68457;99380.52;;;;
2021/01/10 20:26:10;;;;;;;87.1;57.5;;;;;;;-5.38;83.71582;99382.81;;;;
2021/01/10 20:36:07;;;;;;;84.9;60.7;;;;;;;-5.42;84.44629;99371.08;;;;
2021/01/10 20:46:05;;;;;;;101.6;65.2;;;;;;;-5.54;83.5752;99359.41;;;;
2021/01/10 20:56:08;;;;;;;96.1;57.9;;;;;;;-5.61;84.03809;99369.03;;;;
2021/01/10 21:05:58;;;;;;;82.2;51.1;;;;;;;-5.67;84.13379;99359.27;;;;
2021/01/10 21:15:54;;;;;;;75.2;49.3;;;;;;;-5.75;84.05273;99357.56;;;;
2021/01/10 21:25:52;;;;;;;113.3;69;;;;;;;-5.82;84.15723;99371.59;;;;
2021/01/10 21:35:48;;;;;;;91.9;60.2;;;;;;;-5.86;83.95605;99359.86;;;;
2021/01/10 21:45:45;;;;;;;92.6;60.2;;;;;;;-5.92;85.36133;99360.61;;;;
2021/01/10 21:55:42;;;;;;;122.5;74.5;;;;;;;-5.87;85.88086;99360.88;;;;
2021/01/10 22:05:39;;;;;;;115.1;74.1;;;;;;;-5.91;86.14453;99355.19;;;;
2021/01/10 22:15:36;;;;;;;150;93.3;;;;;;;-5.87;86.22754;99353.02;;;;
2021/01/10 22:25:33;;;;;;;125.7;84.4;;;;;;;-5.6;85.1123;99365.41;;;;
2021/01/10 22:35:30;;;;;;;112.7;77.2;;;;;;;-5.36;84.52148;99372.95;;;;
2021/01/10 22:45:27;;;;;;;113.6;77.8;;;;;;;-5.07;84.03613;99381.73;;;;
2021/01/10 22:55:25;;;;;;;113.2;68.5;;;;;;;-5.1;84.05273;99367.13;;;;
2021/01/10 23:05:22;;;;;;;107.1;71.4;;;;;;;-5.25;83.87109;99361.14;;;;
2021/01/10 23:15:19;;;;;;;94.8;70.8;;;;;;;-5.49;83.61816;99362.31;;;;
2021/01/10 23:25:16;;;;;;;99.3;70.3;;;;;;;-5.64;84.88672;99364.15;;;;
2021/01/10 23:35:13;;;;;;;102.8;69.9;;;;;;;-5.58;83.57715;99373.91;;;;
2021/01/10 23:45:10;;;;;;;92.6;62.7;;;;;;;-5.59;83.13086;99348.67;;;;
2021/01/10 23:55:07;;;;;;;109.9;72.9;;;;;;;-5.85;83.16699;99351.79;;;;
